createdAt,value
2016-06-13T00:00:52.500Z,0
2016-06-13T00:01:52.503Z,0
2016-06-13T00:02:52.505Z,0
2016-06-13T00:03:52.508Z,0
2016-06-13T00:04:52.528Z,0
2016-06-13T00:05:52.515Z,0
2016-06-13T00:06:52.518Z,0
2016-06-13T00:07:52.536Z,0
2016-06-13T00:08:52.368Z,0
2016-06-13T00:09:52.527Z,0
2016-06-13T00:10:53.077Z,0
2016-06-13T00:11:53.190Z,0
2016-06-13T00:12:52.522Z,0
2016-06-13T00:13:52.524Z,0
2016-06-13T00:14:52.542Z,0
2016-06-13T00:15:52.592Z,0
2016-06-13T00:16:52.799Z,0
2016-06-13T00:17:52.552Z,0
2016-06-13T00:18:52.539Z,0
2016-06-13T00:19:52.371Z,0
2016-06-13T00:20:52.374Z,0
2016-06-13T00:21:52.533Z,0
2016-06-13T00:22:52.739Z,0
2016-06-13T00:23:52.384Z,0
2016-06-13T00:24:52.542Z,0
2016-06-13T00:25:52.795Z,0
2016-06-13T00:26:53.158Z,0
2016-06-13T00:27:52.520Z,0
2016-06-13T00:28:52.540Z,0
2016-06-13T00:29:52.557Z,0
2016-06-13T00:30:52.560Z,0
2016-06-13T00:31:52.549Z,0
2016-06-13T00:32:52.536Z,0
2016-06-13T00:33:52.555Z,0
2016-06-13T00:34:52.558Z,0
2016-06-13T00:35:52.561Z,0
2016-06-13T00:36:52.564Z,0
2016-06-13T00:37:52.551Z,0
2016-06-13T00:38:52.554Z,0
2016-06-13T00:39:52.542Z,0
2016-06-13T00:40:52.966Z,0
2016-06-13T00:41:52.844Z,0
2016-06-13T00:42:52.551Z,0
2016-06-13T00:43:52.570Z,0
2016-06-13T00:44:52.416Z,0
2016-06-13T00:45:52.560Z,0
2016-06-13T00:46:52.547Z,0
2016-06-13T00:47:52.613Z,0
2016-06-13T00:48:52.569Z,0
2016-06-13T00:49:52.572Z,0
2016-06-13T00:50:52.435Z,0
2016-06-13T00:51:52.563Z,0
2016-06-13T00:52:52.409Z,0
2016-06-13T00:53:52.570Z,0
2016-06-13T00:54:52.556Z,0
2016-06-13T00:55:52.826Z,0
2016-06-13T00:56:52.579Z,0
2016-06-13T00:57:52.566Z,0
2016-06-13T00:58:52.569Z,0
2016-06-13T00:59:52.572Z,0
2016-06-13T01:00:52.575Z,0
2016-06-13T01:01:52.578Z,0
2016-06-13T01:02:52.565Z,0
2016-06-13T01:03:52.584Z,0
2016-06-13T01:04:52.588Z,0
2016-06-13T01:05:52.574Z,0
2016-06-13T01:06:52.577Z,0
2016-06-13T01:07:52.581Z,0
2016-06-13T01:08:52.849Z,0
2016-06-13T01:09:52.586Z,0
2016-06-13T01:10:53.293Z,0
2016-06-13T01:11:52.218Z,0
2016-06-13T01:12:52.581Z,0
2016-06-13T01:13:52.583Z,0
2016-06-13T01:14:52.493Z,0
2016-06-13T01:15:52.277Z,0
2016-06-13T01:16:52.452Z,0
2016-06-13T01:17:52.596Z,0
2016-06-13T01:18:52.536Z,0
2016-06-13T01:19:52.602Z,0
2016-06-13T01:20:52.605Z,0
2016-06-13T01:21:52.593Z,0
2016-06-13T01:22:52.596Z,0
2016-06-13T01:23:52.598Z,0
2016-06-13T01:24:52.601Z,0
2016-06-13T01:25:53.635Z,0
2016-06-13T01:26:52.968Z,0
2016-06-13T01:27:52.611Z,0
2016-06-13T01:28:52.458Z,0
2016-06-13T01:29:52.617Z,0
2016-06-13T01:30:52.605Z,0
2016-06-13T01:31:52.608Z,0
2016-06-13T01:32:52.595Z,0
2016-06-13T01:33:52.615Z,0
2016-06-13T01:34:52.617Z,0
2016-06-13T01:35:52.620Z,0
2016-06-13T01:36:52.608Z,0
2016-06-13T01:37:52.627Z,0
2016-06-13T01:38:52.645Z,0
2016-06-13T01:39:52.616Z,0
2016-06-13T01:40:53.182Z,0
2016-06-13T01:41:52.920Z,0
2016-06-13T01:42:52.610Z,0
2016-06-13T01:43:52.629Z,0
2016-06-13T01:44:52.617Z,0
2016-06-13T01:45:52.619Z,0
2016-06-13T01:46:52.638Z,0
2016-06-13T01:47:52.625Z,0
2016-06-13T01:48:52.644Z,0
2016-06-13T01:49:52.632Z,0
2016-06-13T01:50:52.634Z,0
2016-06-13T01:51:52.653Z,0
2016-06-13T01:52:52.640Z,0
2016-06-13T01:53:52.472Z,0
2016-06-13T01:54:52.646Z,0
2016-06-13T01:55:53.416Z,0
2016-06-13T01:56:52.341Z,0
2016-06-13T01:57:52.656Z,0
2016-06-13T01:58:52.659Z,0
2016-06-13T01:59:52.647Z,0
2016-06-13T02:00:52.651Z,0
2016-06-13T02:01:52.637Z,0
2016-06-13T02:02:52.656Z,0
2016-06-13T02:03:52.644Z,0
2016-06-13T02:04:52.630Z,0
2016-06-13T02:05:52.634Z,0
2016-06-13T02:06:52.497Z,0
2016-06-13T02:07:52.655Z,0
2016-06-13T02:08:52.659Z,0
2016-06-13T02:09:52.646Z,0
2016-06-13T02:10:52.540Z,0
2016-06-13T02:11:53.621Z,0
2016-06-13T02:12:52.655Z,0
2016-06-13T02:13:52.658Z,0
2016-06-13T02:14:52.662Z,0
2016-06-13T02:15:52.664Z,0
2016-06-13T02:16:52.667Z,0
2016-06-13T02:17:52.655Z,0
2016-06-13T02:18:52.659Z,0
2016-06-13T02:19:52.677Z,0
2016-06-13T02:20:52.665Z,0
2016-06-13T02:21:52.652Z,0
2016-06-13T02:22:52.499Z,0
2016-06-13T02:23:52.674Z,0
2016-06-13T02:24:52.661Z,0
2016-06-13T02:25:53.539Z,0
2016-06-13T02:26:53.136Z,0
2016-06-13T02:27:52.514Z,0
2016-06-13T02:28:52.674Z,0
2016-06-13T02:29:52.676Z,0
2016-06-13T02:30:52.680Z,0
2016-06-13T02:31:52.668Z,0
2016-06-13T02:32:52.671Z,0
2016-06-13T02:33:52.673Z,0
2016-06-13T02:34:52.677Z,0
2016-06-13T02:35:52.680Z,0
2016-06-13T02:36:52.667Z,0
2016-06-13T02:37:52.686Z,0
2016-06-13T02:38:52.689Z,0
2016-06-13T02:39:52.676Z,0
2016-06-13T02:40:53.148Z,0
2016-06-13T02:41:52.979Z,0
2016-06-13T02:42:52.530Z,0
2016-06-13T02:43:52.705Z,0
2016-06-13T02:44:52.691Z,0
2016-06-13T02:45:52.695Z,0
2016-06-13T02:46:52.682Z,0
2016-06-13T02:47:52.545Z,0
2016-06-13T02:48:52.703Z,0
2016-06-13T02:49:52.690Z,0
2016-06-13T02:50:52.694Z,0
2016-06-13T02:51:52.697Z,0
2016-06-13T02:52:52.700Z,0
2016-06-13T02:53:52.703Z,0
2016-06-13T02:54:52.707Z,0
2016-06-13T02:55:52.709Z,0
2016-06-13T02:56:54.009Z,0
2016-06-13T02:57:52.701Z,0
2016-06-13T02:58:52.704Z,0
2016-06-13T02:59:52.691Z,0
2016-06-13T03:00:52.709Z,0
2016-06-13T03:01:52.697Z,0
2016-06-13T03:02:52.700Z,0
2016-06-13T03:03:52.703Z,0
2016-06-13T03:04:52.706Z,0
2016-06-13T03:05:52.553Z,0
2016-06-13T03:06:52.712Z,0
2016-06-13T03:07:52.716Z,0
2016-06-13T03:08:52.718Z,0
2016-06-13T03:09:52.705Z,0
2016-06-13T03:10:52.709Z,0
2016-06-13T03:11:53.666Z,0
2016-06-13T03:12:52.730Z,0
2016-06-13T03:13:52.703Z,0
2016-06-13T03:14:52.721Z,0
2016-06-13T03:15:52.723Z,0
2016-06-13T03:16:52.727Z,0
2016-06-13T03:17:52.730Z,0
2016-06-13T03:18:52.718Z,0
2016-06-13T03:19:52.565Z,0
2016-06-13T03:20:52.725Z,0
2016-06-13T03:21:52.727Z,0
2016-06-13T03:22:52.730Z,0
2016-06-13T03:23:52.733Z,0
2016-06-13T03:24:52.721Z,0
2016-06-13T03:25:52.567Z,0
2016-06-13T03:26:52.623Z,0
2016-06-13T03:27:52.792Z,0
2016-06-13T03:28:52.835Z,0
2016-06-13T03:29:52.879Z,0
2016-06-13T03:30:52.766Z,0
2016-06-13T03:31:52.937Z,0
2016-06-13T03:32:52.953Z,5
2016-06-13T03:33:52.986Z,5
2016-06-13T03:34:53.003Z,5
2016-06-13T03:35:53.006Z,0
2016-06-13T03:36:53.018Z,0
2016-06-13T03:37:53.026Z,0
2016-06-13T03:38:53.035Z,0
2016-06-13T03:39:53.043Z,0
2016-06-13T03:40:53.036Z,5
2016-06-13T03:41:52.901Z,5
2016-06-13T03:42:53.047Z,5
2016-06-13T03:43:53.068Z,5
2016-06-13T03:44:53.073Z,5
2016-06-13T03:45:53.062Z,5
2016-06-13T03:46:53.067Z,5
2016-06-13T03:47:52.899Z,5
2016-06-13T03:48:53.058Z,10
2016-06-13T03:49:53.062Z,10
2016-06-13T03:50:53.066Z,10
2016-06-13T03:51:53.070Z,10
2016-06-13T03:52:53.072Z,10
2016-06-13T03:53:53.092Z,10
2016-06-13T03:54:53.078Z,10
2016-06-13T03:55:52.926Z,10
2016-06-13T03:56:53.695Z,10
2016-06-13T03:57:53.073Z,10
2016-06-13T03:58:53.091Z,15
2016-06-13T03:59:52.922Z,15
2016-06-13T04:00:53.082Z,15
2016-06-13T04:01:53.085Z,15
2016-06-13T04:02:53.073Z,20
2016-06-13T04:03:53.075Z,20
2016-06-13T04:04:53.079Z,25
2016-06-13T04:05:53.081Z,25
2016-06-13T04:06:52.929Z,20
2016-06-13T04:07:53.104Z,25
2016-06-13T04:08:53.090Z,25
2016-06-13T04:09:53.078Z,25
2016-06-13T04:10:53.097Z,25
2016-06-13T04:11:52.663Z,25
2016-06-13T04:12:52.931Z,25
2016-06-13T04:13:53.090Z,30
2016-06-13T04:14:53.078Z,20
2016-06-13T04:15:53.097Z,20
2016-06-13T04:16:53.099Z,20
2016-06-13T04:17:53.087Z,15
2016-06-13T04:18:53.091Z,15
2016-06-13T04:19:53.094Z,15
2016-06-13T04:20:53.096Z,15
2016-06-13T04:21:53.114Z,15
2016-06-13T04:22:53.102Z,10
2016-06-13T04:23:53.106Z,10
2016-06-13T04:24:53.109Z,5
2016-06-13T04:25:53.095Z,5
2016-06-13T04:26:54.224Z,5
2016-06-13T04:27:53.102Z,10
2016-06-13T04:28:53.105Z,10
2016-06-13T04:29:53.108Z,10
2016-06-13T04:30:53.128Z,10
2016-06-13T04:31:52.958Z,10
2016-06-13T04:32:53.102Z,10
2016-06-13T04:33:53.105Z,10
2016-06-13T04:34:53.108Z,10
2016-06-13T04:35:53.127Z,15
2016-06-13T04:36:52.973Z,15
2016-06-13T04:37:53.118Z,15
2016-06-13T04:38:53.105Z,15
2016-06-13T04:39:53.124Z,15
2016-06-13T04:40:53.111Z,15
2016-06-13T04:41:52.833Z,10
2016-06-13T04:42:53.133Z,10
2016-06-13T04:43:53.121Z,10
2016-06-13T04:44:53.123Z,15
2016-06-13T04:45:53.126Z,15
2016-06-13T04:46:53.130Z,20
2016-06-13T04:47:53.132Z,20
2016-06-13T04:48:53.119Z,20
2016-06-13T04:49:52.966Z,25
2016-06-13T04:50:52.970Z,25
2016-06-13T04:51:53.145Z,25
2016-06-13T04:52:53.148Z,25
2016-06-13T04:53:53.135Z,25
2016-06-13T04:54:53.138Z,25
2016-06-13T04:55:53.141Z,30
2016-06-13T04:56:53.177Z,25
2016-06-13T04:57:52.711Z,20
2016-06-13T04:58:53.150Z,15
2016-06-13T04:59:53.138Z,15
2016-06-13T05:00:52.985Z,15
2016-06-13T05:01:53.145Z,15
2016-06-13T05:02:53.148Z,20
2016-06-13T05:03:52.994Z,25
2016-06-13T05:04:52.981Z,25
2016-06-13T05:05:53.157Z,20
2016-06-13T05:06:53.144Z,20
2016-06-13T05:07:53.163Z,15
2016-06-13T05:08:53.166Z,20
2016-06-13T05:09:53.153Z,20
2016-06-13T05:10:53.156Z,20
2016-06-13T05:11:53.565Z,15
2016-06-13T05:12:53.240Z,15
2016-06-13T05:13:53.166Z,15
2016-06-13T05:14:53.153Z,20
2016-06-13T05:15:53.155Z,20
2016-06-13T05:16:53.159Z,15
2016-06-13T05:17:53.006Z,15
2016-06-13T05:18:53.165Z,15
2016-06-13T05:19:53.168Z,15
2016-06-13T05:20:53.187Z,15
2016-06-13T05:21:53.174Z,10
2016-06-13T05:22:53.193Z,10
2016-06-13T05:23:53.165Z,10
2016-06-13T05:24:53.168Z,15
2016-06-13T05:25:53.172Z,10
2016-06-13T05:26:53.534Z,10
2016-06-13T05:27:53.177Z,15
2016-06-13T05:28:53.180Z,15
2016-06-13T05:29:53.168Z,15
2016-06-13T05:30:53.171Z,15
2016-06-13T05:31:53.190Z,10
2016-06-13T05:32:53.177Z,10
2016-06-13T05:33:53.180Z,15
2016-06-13T05:34:53.183Z,15
2016-06-13T05:35:53.202Z,15
2016-06-13T05:36:53.189Z,20
2016-06-13T05:37:53.192Z,20
2016-06-13T05:38:53.195Z,25
2016-06-13T05:39:53.042Z,25
2016-06-13T05:40:53.201Z,25
2016-06-13T05:41:52.924Z,30
2016-06-13T05:42:53.536Z,30
2016-06-13T05:43:53.196Z,30
2016-06-13T05:44:53.214Z,30
2016-06-13T05:45:53.202Z,35
2016-06-13T05:46:53.205Z,35
2016-06-13T05:47:53.192Z,40
2016-06-13T05:48:53.195Z,35
2016-06-13T05:49:53.214Z,30
2016-06-13T05:50:53.201Z,30
2016-06-13T05:51:53.204Z,25
2016-06-13T05:52:53.207Z,30
2016-06-13T05:53:53.227Z,30
2016-06-13T05:54:53.214Z,30
2016-06-13T05:55:53.216Z,30
2016-06-13T05:56:53.673Z,30
2016-06-13T05:57:53.426Z,30
2016-06-13T05:58:53.226Z,35
2016-06-13T05:59:53.057Z,40
2016-06-13T06:00:53.215Z,45
2016-06-13T06:01:53.219Z,55
2016-06-13T06:02:53.207Z,60
2016-06-13T06:03:53.225Z,60
2016-06-13T06:04:53.213Z,65
2016-06-13T06:05:53.248Z,65
2016-06-13T06:06:53.219Z,65
2016-06-13T06:07:53.237Z,60
2016-06-13T06:08:53.225Z,60
2016-06-13T06:09:53.229Z,60
2016-06-13T06:10:53.216Z,60
2016-06-13T06:11:53.234Z,65
2016-06-13T06:12:54.144Z,60
2016-06-13T06:13:53.225Z,60
2016-06-13T06:14:53.244Z,65
2016-06-13T06:15:53.247Z,65
2016-06-13T06:16:53.250Z,65
2016-06-13T06:17:53.237Z,65
2016-06-13T06:18:53.240Z,65
2016-06-13T06:19:53.243Z,60
2016-06-13T06:20:53.246Z,60
2016-06-13T06:21:53.265Z,60
2016-06-13T06:22:53.237Z,60
2016-06-13T06:23:53.240Z,60
2016-06-13T06:24:53.274Z,60
2016-06-13T06:25:53.246Z,60
2016-06-13T06:26:53.249Z,65
2016-06-13T06:27:54.377Z,65
2016-06-13T06:28:53.271Z,70
2016-06-13T06:29:53.258Z,70
2016-06-13T06:30:53.246Z,75
2016-06-13T06:31:53.264Z,75
2016-06-13T06:32:53.127Z,80
2016-06-13T06:33:53.256Z,80
2016-06-13T06:34:53.259Z,80
2016-06-13T06:35:53.262Z,75
2016-06-13T06:36:53.264Z,70
2016-06-13T06:37:53.267Z,70
2016-06-13T06:38:53.255Z,75
2016-06-13T06:39:53.102Z,80
2016-06-13T06:40:53.261Z,80
2016-06-13T06:41:53.280Z,75
2016-06-13T06:42:53.564Z,75
2016-06-13T06:43:53.270Z,75
2016-06-13T06:44:53.273Z,70
2016-06-13T06:45:53.276Z,60
2016-06-13T06:46:53.280Z,60
2016-06-13T06:47:53.298Z,60
2016-06-13T06:48:53.286Z,55
2016-06-13T06:49:53.304Z,45
2016-06-13T06:50:53.136Z,40
2016-06-13T06:51:53.295Z,40
2016-06-13T06:52:53.298Z,45
2016-06-13T06:53:53.286Z,55
2016-06-13T06:54:53.288Z,65
2016-06-13T06:55:53.292Z,70
2016-06-13T06:56:53.295Z,65
2016-06-13T06:57:53.704Z,65
2016-06-13T06:58:53.301Z,75
2016-06-13T06:59:53.304Z,75
2016-06-13T07:00:53.292Z,80
2016-06-13T07:01:53.310Z,85
2016-06-13T07:02:53.313Z,85
2016-06-13T07:03:53.332Z,80
2016-06-13T07:04:53.304Z,65
2016-06-13T07:05:53.323Z,65
2016-06-13T07:06:53.341Z,70
2016-06-13T07:07:53.329Z,75
2016-06-13T07:08:53.332Z,75
2016-06-13T07:09:53.319Z,80
2016-06-13T07:10:53.166Z,85
2016-06-13T07:11:53.169Z,90
2016-06-13T07:12:53.484Z,75
2016-06-13T07:13:53.379Z,55
2016-06-13T07:14:53.334Z,40
2016-06-13T07:15:53.338Z,50
2016-06-13T07:16:53.166Z,70
2016-06-13T07:17:53.341Z,80
2016-06-13T07:18:53.328Z,85
2016-06-13T07:19:53.347Z,80
2016-06-13T07:20:53.333Z,70
2016-06-13T07:21:53.369Z,80
2016-06-13T07:22:53.340Z,75
2016-06-13T07:23:53.328Z,65
2016-06-13T07:24:53.034Z,75
2016-06-13T07:25:53.350Z,85
2016-06-13T07:26:53.352Z,95
2016-06-13T07:27:53.355Z,105
2016-06-13T07:28:53.359Z,100
2016-06-13T07:29:53.362Z,100
2016-06-13T07:30:53.208Z,105
2016-06-13T07:31:53.367Z,110
2016-06-13T07:32:53.355Z,105
2016-06-13T07:33:53.359Z,90
2016-06-13T07:34:53.204Z,85
2016-06-13T07:35:53.365Z,85
2016-06-13T07:36:53.430Z,85
2016-06-13T07:37:53.371Z,85
2016-06-13T07:38:53.374Z,85
2016-06-13T07:39:53.392Z,95
2016-06-13T07:40:53.364Z,85
2016-06-13T07:41:53.368Z,70
2016-06-13T07:42:53.589Z,60
2016-06-13T07:43:53.390Z,70
2016-06-13T07:44:53.408Z,70
2016-06-13T07:45:53.379Z,60
2016-06-13T07:46:53.398Z,45
2016-06-13T07:47:53.339Z,35
2016-06-13T07:48:53.405Z,30
2016-06-13T07:49:53.392Z,30
2016-06-13T07:50:53.239Z,35
2016-06-13T07:51:53.398Z,40
2016-06-13T07:52:53.401Z,40
2016-06-13T07:53:53.405Z,45
2016-06-13T07:54:53.251Z,50
2016-06-13T07:55:53.098Z,50
2016-06-13T07:56:53.414Z,55
2016-06-13T07:57:53.823Z,60
2016-06-13T07:58:53.419Z,60
2016-06-13T07:59:53.423Z,60
2016-06-13T08:00:53.410Z,60
2016-06-13T08:01:53.413Z,60
2016-06-13T08:02:53.416Z,60
2016-06-13T08:03:53.435Z,65
2016-06-13T08:04:53.407Z,80
2016-06-13T08:05:53.425Z,85
2016-06-13T08:06:53.428Z,75
2016-06-13T08:07:53.275Z,60
2016-06-13T08:08:53.434Z,55
2016-06-13T08:09:53.423Z,55
2016-06-13T08:10:53.425Z,65
2016-06-13T08:11:53.443Z,85
2016-06-13T08:12:54.447Z,90
2016-06-13T08:13:53.450Z,80
2016-06-13T08:14:53.437Z,85
2016-06-13T08:15:53.441Z,80
2016-06-13T08:16:53.458Z,75
2016-06-13T08:17:53.462Z,70
2016-06-13T08:18:53.294Z,60
2016-06-13T08:19:53.312Z,60
2016-06-13T08:20:53.471Z,55
2016-06-13T08:21:53.460Z,55
2016-06-13T08:22:53.462Z,65
2016-06-13T08:23:53.466Z,80
2016-06-13T08:24:53.468Z,85
2016-06-13T08:25:53.471Z,90
2016-06-13T08:26:53.459Z,85
2016-06-13T08:27:54.056Z,80
2016-06-13T08:28:53.480Z,85
2016-06-13T08:29:53.468Z,80
2016-06-13T08:30:53.471Z,80
2016-06-13T08:31:53.474Z,80
2016-06-13T08:32:53.493Z,95
2016-06-13T08:33:53.496Z,80
2016-06-13T08:34:53.483Z,80
2016-06-13T08:35:53.502Z,80
2016-06-13T08:36:53.490Z,85
2016-06-13T08:37:53.493Z,90
2016-06-13T08:38:53.496Z,85
2016-06-13T08:39:53.654Z,70
2016-06-13T08:40:53.502Z,55
2016-06-13T08:41:53.521Z,75
2016-06-13T08:42:54.601Z,75
2016-06-13T08:43:53.355Z,65
2016-06-13T08:44:53.514Z,55
2016-06-13T08:45:53.361Z,60
2016-06-13T08:46:53.536Z,80
2016-06-13T08:47:53.523Z,70
2016-06-13T08:48:53.542Z,70
2016-06-13T08:49:53.530Z,80
2016-06-13T08:50:53.517Z,70
2016-06-13T08:51:53.520Z,65
2016-06-13T08:52:53.539Z,75
2016-06-13T08:53:53.527Z,65
2016-06-13T08:54:53.544Z,55
2016-06-13T08:55:53.376Z,60
2016-06-13T08:56:53.536Z,70
2016-06-13T08:57:53.976Z,100
2016-06-13T08:58:53.917Z,115
2016-06-13T08:59:53.545Z,115
2016-06-13T09:00:53.391Z,140
2016-06-13T09:01:53.395Z,175
2016-06-13T09:02:53.554Z,195
2016-06-13T09:03:53.557Z,270
2016-06-13T09:04:53.560Z,330
2016-06-13T09:05:53.423Z,275
2016-06-13T09:06:53.566Z,210
2016-06-13T09:07:53.570Z,195
2016-06-13T09:08:53.573Z,175
2016-06-13T09:09:53.560Z,175
2016-06-13T09:10:53.594Z,175
2016-06-13T09:11:53.581Z,160
2016-06-13T09:12:54.366Z,140
2016-06-13T09:13:53.634Z,125
2016-06-13T09:14:53.575Z,125
2016-06-13T09:15:53.594Z,130
2016-06-13T09:16:53.582Z,120
2016-06-13T09:17:53.584Z,105
2016-06-13T09:18:53.587Z,95
2016-06-13T09:19:53.575Z,90
2016-06-13T09:20:53.594Z,90
2016-06-13T09:21:53.596Z,95
2016-06-13T09:22:53.600Z,90
2016-06-13T09:23:53.603Z,90
2016-06-13T09:24:53.449Z,105
2016-06-13T09:25:53.437Z,115
2016-06-13T09:26:53.628Z,105
2016-06-13T09:27:53.802Z,100
2016-06-13T09:28:53.634Z,100
2016-06-13T09:29:53.606Z,95
2016-06-13T09:30:53.624Z,100
2016-06-13T09:31:53.814Z,120
2016-06-13T09:32:53.615Z,110
2016-06-13T09:33:53.634Z,95
2016-06-13T09:34:53.637Z,90
2016-06-13T09:35:53.624Z,80
2016-06-13T09:36:53.642Z,85
2016-06-13T09:37:53.646Z,85
2016-06-13T09:38:53.633Z,70
2016-06-13T09:39:53.636Z,65
2016-06-13T09:40:53.655Z,75
2016-06-13T09:41:53.642Z,65
2016-06-13T09:42:53.520Z,70
2016-06-13T09:43:54.009Z,75
2016-06-13T09:44:53.652Z,85
2016-06-13T09:45:53.654Z,85
2016-06-13T09:46:53.673Z,85
2016-06-13T09:47:53.661Z,70
2016-06-13T09:48:53.664Z,70
2016-06-13T09:49:53.666Z,70
2016-06-13T09:50:53.686Z,80
2016-06-13T09:51:53.673Z,90
2016-06-13T09:52:53.661Z,90
2016-06-13T09:53:53.679Z,95
2016-06-13T09:54:53.682Z,85
2016-06-13T09:55:53.671Z,70
2016-06-13T09:56:53.688Z,75
2016-06-13T09:57:53.394Z,120
2016-06-13T09:58:54.258Z,135
2016-06-13T09:59:53.682Z,115
2016-06-13T10:00:53.544Z,95
2016-06-13T10:01:53.703Z,90
2016-06-13T10:02:53.723Z,95
2016-06-13T10:03:53.726Z,140
2016-06-13T10:04:53.744Z,120
2016-06-13T10:05:53.732Z,110
2016-06-13T10:06:53.751Z,70
2016-06-13T10:07:53.738Z,75
2016-06-13T10:08:53.741Z,95
2016-06-13T10:09:53.745Z,100
2016-06-13T10:10:53.606Z,105
2016-06-13T10:11:53.594Z,105
2016-06-13T10:12:54.348Z,110
2016-06-13T10:13:53.898Z,100
2016-06-13T10:14:53.759Z,85
2016-06-13T10:15:53.590Z,70
2016-06-13T10:16:53.766Z,80
2016-06-13T10:17:53.769Z,85
2016-06-13T10:18:53.772Z,115
2016-06-13T10:19:53.618Z,155
2016-06-13T10:20:53.794Z,160
2016-06-13T10:21:53.781Z,155
2016-06-13T10:22:53.784Z,140
2016-06-13T10:23:53.974Z,125
2016-06-13T10:24:53.775Z,125
2016-06-13T10:25:53.793Z,110
2016-06-13T10:26:53.624Z,115
2016-06-13T10:27:53.783Z,105
2016-06-13T10:28:54.319Z,95
2016-06-13T10:29:53.790Z,110
2016-06-13T10:30:53.792Z,95
2016-06-13T10:31:53.812Z,75
2016-06-13T10:32:53.799Z,70
2016-06-13T10:33:53.802Z,60
2016-06-13T10:34:53.821Z,65
2016-06-13T10:35:53.809Z,65
2016-06-13T10:36:53.811Z,65
2016-06-13T10:37:53.814Z,65
2016-06-13T10:38:53.817Z,65
2016-06-13T10:39:53.820Z,60
2016-06-13T10:40:53.823Z,60
2016-06-13T10:41:53.827Z,70
2016-06-13T10:42:54.049Z,85
2016-06-13T10:43:53.693Z,95
2016-06-13T10:44:53.835Z,95
2016-06-13T10:45:53.839Z,105
2016-06-13T10:46:53.858Z,90
2016-06-13T10:47:53.830Z,90
2016-06-13T10:48:53.848Z,105
2016-06-13T10:49:53.695Z,110
2016-06-13T10:50:53.839Z,115
2016-06-13T10:51:53.842Z,120
2016-06-13T10:52:53.860Z,130
2016-06-13T10:53:53.863Z,140
2016-06-13T10:54:53.866Z,150
2016-06-13T10:55:53.902Z,155
2016-06-13T10:56:53.873Z,160
2016-06-13T10:57:53.876Z,160
2016-06-13T10:58:53.895Z,125
2016-06-13T10:59:53.882Z,130
2016-06-13T11:00:53.745Z,150
2016-06-13T11:01:53.904Z,140
2016-06-13T11:02:53.891Z,145
2016-06-13T11:03:53.879Z,130
2016-06-13T11:04:53.725Z,135
2016-06-13T11:05:53.603Z,150
2016-06-13T11:06:53.904Z,150
2016-06-13T11:07:53.892Z,135
2016-06-13T11:08:53.910Z,125
2016-06-13T11:09:53.898Z,110
2016-06-13T11:10:53.916Z,105
2016-06-13T11:11:53.919Z,105
2016-06-13T11:12:53.907Z,105
2016-06-13T11:13:53.628Z,120
2016-06-13T11:14:53.913Z,150
2016-06-13T11:15:53.916Z,215
2016-06-13T11:16:53.919Z,275
2016-06-13T11:17:53.922Z,310
2016-06-13T11:18:53.925Z,305
2016-06-13T11:19:53.943Z,280
2016-06-13T11:20:53.635Z,240
2016-06-13T11:21:53.935Z,210
2016-06-13T11:22:53.953Z,175
2016-06-13T11:23:53.955Z,175
2016-06-13T11:24:53.959Z,170
2016-06-13T11:25:53.947Z,200
2016-06-13T11:26:53.793Z,200
2016-06-13T11:27:54.140Z,160
2016-06-13T11:28:54.893Z,185
2016-06-13T11:29:54.224Z,190
2016-06-13T11:30:54.071Z,200
2016-06-13T11:31:53.980Z,175
2016-06-13T11:32:53.983Z,180
2016-06-13T11:33:53.971Z,165
2016-06-13T11:34:53.975Z,165
2016-06-13T11:35:53.993Z,165
2016-06-13T11:36:53.981Z,195
2016-06-13T11:37:53.984Z,185
2016-06-13T11:38:53.987Z,135
2016-06-13T11:39:54.005Z,120
2016-06-13T11:40:54.008Z,125
2016-06-13T11:41:53.996Z,135
2016-06-13T11:42:53.999Z,145
2016-06-13T11:43:54.705Z,130
2016-06-13T11:44:54.006Z,120
2016-06-13T11:45:54.024Z,105
2016-06-13T11:46:54.026Z,85
2016-06-13T11:47:54.029Z,75
2016-06-13T11:48:54.017Z,85
2016-06-13T11:49:54.035Z,100
2016-06-13T11:50:53.882Z,90
2016-06-13T11:51:54.027Z,110
2016-06-13T11:52:53.873Z,95
2016-06-13T11:53:54.048Z,90
2016-06-13T11:54:54.036Z,130
2016-06-13T11:55:54.070Z,140
2016-06-13T11:56:54.057Z,155
2016-06-13T11:57:53.905Z,150
2016-06-13T11:58:54.095Z,160
2016-06-13T11:59:54.082Z,170
2016-06-13T12:00:54.069Z,165
2016-06-13T12:01:53.901Z,185
2016-06-13T12:02:54.076Z,215
2016-06-13T12:03:54.078Z,220
2016-06-13T12:04:54.082Z,240
2016-06-13T12:05:54.084Z,250
2016-06-13T12:06:53.931Z,245
2016-06-13T12:07:53.935Z,245
2016-06-13T12:08:54.094Z,230
2016-06-13T12:09:54.097Z,235
2016-06-13T12:10:54.100Z,225
2016-06-13T12:11:54.119Z,185
2016-06-13T12:12:54.106Z,235
2016-06-13T12:13:54.781Z,260
2016-06-13T12:14:54.472Z,260
2016-06-13T12:15:53.976Z,240
2016-06-13T12:16:54.118Z,185
2016-06-13T12:17:54.137Z,175
2016-06-13T12:18:54.125Z,155
2016-06-13T12:19:54.128Z,125
2016-06-13T12:20:54.147Z,165
2016-06-13T12:21:54.150Z,190
2016-06-13T12:22:54.137Z,195
2016-06-13T12:23:54.125Z,220
2016-06-13T12:24:54.143Z,220
2016-06-13T12:25:54.147Z,210
2016-06-13T12:26:54.149Z,205
2016-06-13T12:27:53.996Z,185
2016-06-13T12:28:54.922Z,125
2016-06-13T12:29:54.019Z,85
2016-06-13T12:30:54.178Z,85
2016-06-13T12:31:54.164Z,145
2016-06-13T12:32:54.184Z,155
2016-06-13T12:33:54.202Z,130
2016-06-13T12:34:54.246Z,110
2016-06-13T12:35:54.150Z,120
2016-06-13T12:36:54.349Z,85
2016-06-13T12:37:54.237Z,120
2016-06-13T12:38:54.432Z,120
2016-06-13T12:39:54.450Z,115
2016-06-13T12:40:54.452Z,110
2016-06-13T12:41:54.470Z,150
2016-06-13T12:42:54.504Z,150
2016-06-13T12:43:54.592Z,145
2016-06-13T12:44:54.490Z,140
2016-06-13T12:45:54.358Z,155
2016-06-13T12:46:54.506Z,165
2016-06-13T12:47:54.514Z,160
2016-06-13T12:48:54.380Z,150
2016-06-13T12:49:54.557Z,150
2016-06-13T12:50:54.530Z,145
2016-06-13T12:51:54.567Z,140
2016-06-13T12:52:54.556Z,140
2016-06-13T12:53:54.560Z,135
2016-06-13T12:54:54.564Z,115
2016-06-13T12:55:54.615Z,125
2016-06-13T12:56:54.571Z,100
2016-06-13T12:57:54.575Z,120
2016-06-13T12:58:55.282Z,145
2016-06-13T12:59:54.426Z,150
2016-06-13T13:00:54.617Z,140
2016-06-13T13:01:54.433Z,150
2016-06-13T13:02:54.609Z,145
2016-06-13T13:03:54.611Z,150
2016-06-13T13:04:54.599Z,155
2016-06-13T13:05:54.461Z,155
2016-06-13T13:06:54.621Z,160
2016-06-13T13:07:54.467Z,160
2016-06-13T13:08:54.612Z,170
2016-06-13T13:09:54.630Z,170
2016-06-13T13:10:54.634Z,165
2016-06-13T13:11:54.511Z,165
2016-06-13T13:12:54.468Z,160
2016-06-13T13:13:54.642Z,155
2016-06-13T13:14:54.630Z,150
2016-06-13T13:15:54.649Z,145
2016-06-13T13:16:54.636Z,140
2016-06-13T13:17:54.655Z,145
2016-06-13T13:18:54.501Z,150
2016-06-13T13:19:54.364Z,160
2016-06-13T13:20:54.664Z,160
2016-06-13T13:21:54.667Z,175
2016-06-13T13:22:54.685Z,185
2016-06-13T13:23:54.673Z,180
2016-06-13T13:24:54.691Z,170
2016-06-13T13:25:54.680Z,150
2016-06-13T13:26:54.683Z,140
2016-06-13T13:27:54.685Z,155
2016-06-13T13:28:54.907Z,170
2016-06-13T13:29:55.192Z,175
2016-06-13T13:30:54.695Z,180
2016-06-13T13:31:54.698Z,175
2016-06-13T13:32:54.716Z,180
2016-06-13T13:33:54.547Z,185
2016-06-13T13:34:54.707Z,180
2016-06-13T13:35:54.554Z,165
2016-06-13T13:36:54.713Z,160
2016-06-13T13:37:54.716Z,160
2016-06-13T13:38:54.720Z,155
2016-06-13T13:39:54.723Z,150
2016-06-13T13:40:54.741Z,150
2016-06-13T13:41:54.744Z,150
2016-06-13T13:42:54.778Z,150
2016-06-13T13:43:54.813Z,145
2016-06-13T13:44:55.628Z,145
2016-06-13T13:45:54.772Z,140
2016-06-13T13:46:54.759Z,125
2016-06-13T13:47:54.762Z,120
2016-06-13T13:48:54.625Z,125
2016-06-13T13:49:54.612Z,135
2016-06-13T13:50:54.771Z,140
2016-06-13T13:51:54.775Z,130
2016-06-13T13:52:54.778Z,130
2016-06-13T13:53:54.625Z,140
2016-06-13T13:54:54.784Z,150
2016-06-13T13:55:54.786Z,150
2016-06-13T13:56:54.774Z,175
2016-06-13T13:57:54.793Z,195
2016-06-13T13:58:54.343Z,200
2016-06-13T13:59:54.830Z,195
2016-06-13T14:00:54.802Z,200
2016-06-13T14:01:54.649Z,230
2016-06-13T14:02:54.808Z,245
2016-06-13T14:03:54.672Z,265
2016-06-13T14:04:54.659Z,270
2016-06-13T14:05:54.817Z,260
2016-06-13T14:06:54.820Z,255
2016-06-13T14:07:54.855Z,250
2016-06-13T14:08:54.827Z,240
2016-06-13T14:09:54.830Z,235
2016-06-13T14:10:54.864Z,225
2016-06-13T14:11:54.836Z,215
2016-06-13T14:12:54.855Z,210
2016-06-13T14:13:54.748Z,205
2016-06-13T14:14:55.283Z,205